Airfield :
LOGIN :

Register | Disclaimer

   EN    FR    IT 

 










Legend :    VFR   Marginal VFR   IFR   Intensive IFR   Very Intensive IFR
Visi :
Ceiling :
>= 8 km
>= 3000ft
5 to 8 km
1000 to 3000 ft
1500m to 5 km
500 to 1000 ft
800 to 1500m
200 to 500 ft
< 800m
< 200 ft
Symbols :   Thunderstorms  Fog  Heavy snow  Heavy precipitations  Wind > 20 kt
SIGMETs :     Misc.  Thunderstorms  Icing  Turbulence  Mountain Waves  Volcanic Ashes






- Airport Elevation : 1197 ft
- IATA code : SPM


ETAD - Spangdahlem Ab

CURRENT METAR :
  • 300240Z 30005KT 9000 BR FEW013 BKN047 03/02 A3012 RMK AO2A SLP200 $

EXPIRED METARs :
  • 300155Z 00000KT 8000 BR BKN012 OVC050 04/02 A3012 RMK AO2A BKN V OVC SLP200 T00350017 $
  • 300108Z 31003KT 9000 BR BKN014 BKN060 04/02 A3012 RMK AO2A CIG 014V060 SLP200 $
  • 300040Z 32003KT 8000 BR BKN060 03/02 A3012 RMK AO2A SLP200 $

TAF AMD TAF ETAD
Valid from the 30 at 03:00 until the 01 at 03:00 UTC


300330Z 3003/0103 32003KT 9000 BR BKN012 BKN060 QNH3013INS
BECMG 3008/3009 06005KT 5000 BR BKN010 QNH3016INS
BECMG 3017/3018 03007KT 9999 NSW BKN015 QNH3020INS TX08/3013Z TN03/3006Z



MET'MAP, your aeronautical weather chart ! - Copyright ORBIFLY December 2007 - Disclaimer

ORBIFLY MET'MAP TEAM :

Programming & Development : Alexandra Zaïnal
Original concept : Baudouin d'Aumeries
Technical & hardware support : Manuel Goepfert
Assistance : Marc-Olivier Méhu




SOURCES & CREDITS :

   NOAA